createdAt,value
2023-02-09T00:02:10.728Z,7.80
2023-02-09T00:04:37.255Z,7.25
2023-02-09T00:07:03.972Z,7.72
2023-02-09T00:09:30.460Z,7.65
2023-02-09T00:12:15.435Z,7.30
2023-02-09T00:14:41.820Z,6.80
2023-02-09T00:17:08.987Z,7.30
2023-02-09T00:19:35.547Z,6.93
2023-02-09T00:22:02.581Z,7.20
2023-02-09T00:24:28.959Z,7.35
2023-02-09T00:26:55.314Z,7.40
2023-02-09T00:29:23.787Z,7.97
2023-02-09T00:31:51.539Z,7.28
2023-02-09T00:34:18.199Z,7.03
2023-02-09T00:36:44.588Z,6.97
2023-02-09T00:39:10.950Z,7.23
2023-02-09T00:41:56.227Z,7.32
2023-02-09T00:44:22.694Z,7.28
2023-02-09T00:46:49.582Z,7.03
2023-02-09T00:49:16.111Z,6.43
2023-02-09T00:51:42.484Z,6.53
2023-02-09T00:54:09.073Z,7.03
2023-02-09T00:56:35.543Z,6.97
2023-02-09T00:59:01.939Z,6.90
2023-02-09T01:01:28.507Z,6.82
2023-02-09T01:03:55.218Z,7.33
2023-02-09T01:06:21.676Z,6.70
2023-02-09T01:08:48.296Z,7.00
2023-02-09T01:11:15.665Z,7.32
2023-02-09T01:13:43.784Z,7.05
2023-02-09T01:16:14.201Z,6.60
2023-02-09T01:18:41.556Z,6.72
2023-02-09T01:21:14.875Z,6.90
2023-02-09T01:23:41.756Z,5.97
2023-02-09T01:26:09.635Z,6.05
2023-02-09T01:28:37.326Z,6.70
2023-02-09T01:31:04.805Z,6.32
2023-02-09T01:33:31.972Z,6.25
2023-02-09T01:36:04.618Z,6.28
2023-02-09T01:38:31.742Z,6.70
2023-02-09T01:40:58.096Z,6.07
2023-02-09T01:43:24.514Z,6.20
2023-02-09T01:45:54.593Z,5.90
2023-02-09T01:48:26.615Z,5.85
2023-02-09T01:50:57.915Z,5.45
2023-02-09T01:53:24.726Z,5.87
2023-02-09T01:56:04.360Z,5.30
2023-02-09T01:58:32.067Z,5.40
2023-02-09T02:01:00.182Z,5.70
2023-02-09T02:03:29.258Z,5.57
2023-02-09T02:06:00.373Z,5.23
2023-02-09T02:08:34.106Z,5.00
2023-02-09T02:11:01.051Z,5.05
2023-02-09T02:13:27.471Z,4.97
2023-02-09T02:16:11.916Z,5.97
2023-02-09T02:19:10.360Z,4.93
2023-02-09T02:22:09.004Z,5.00
2023-02-09T02:25:12.610Z,5.00
2023-02-09T02:27:54.173Z,5.50
2023-02-09T02:30:51.048Z,5.20
2023-02-09T02:33:41.657Z,4.60
2023-02-09T02:36:13.318Z,5.25
2023-02-09T02:38:53.708Z,5.60
2023-02-09T02:41:57.535Z,4.90
2023-02-09T02:44:27.485Z,5.40
2023-02-09T02:46:59.698Z,4.90
2023-02-09T02:49:49.840Z,5.00
2023-02-09T02:52:16.226Z,4.78
2023-02-09T02:54:49.932Z,5.03
2023-02-09T02:57:24.074Z,4.70
2023-02-09T02:59:56.851Z,5.00
2023-02-09T03:02:28.311Z,5.03
2023-02-09T03:04:58.056Z,4.80
2023-02-09T03:07:24.509Z,5.82
2023-02-09T03:09:52.433Z,4.90
2023-02-09T03:12:34.883Z,5.17
2023-02-09T03:15:25.532Z,5.22
2023-02-09T03:18:01.461Z,5.35
2023-02-09T03:20:50.033Z,4.70
2023-02-09T03:23:33.844Z,4.85
2023-02-09T03:26:11.867Z,5.10
2023-02-09T03:28:42.466Z,4.88
2023-02-09T03:31:09.227Z,5.15
2023-02-09T03:33:38.372Z,5.50
2023-02-09T03:36:12.489Z,5.15
2023-02-09T03:38:38.875Z,4.93
2023-02-09T03:41:07.233Z,5.82
2023-02-09T03:43:52.872Z,5.50
2023-02-09T03:46:19.310Z,5.22
2023-02-09T03:48:46.094Z,4.97
2023-02-09T03:51:13.312Z,5.17
2023-02-09T03:53:39.688Z,5.50
2023-02-09T03:56:07.820Z,5.78
2023-02-09T03:58:36.048Z,5.00
2023-02-09T04:01:09.357Z,5.50
2023-02-09T04:03:37.615Z,4.97
2023-02-09T04:06:04.309Z,5.10
2023-02-09T04:08:30.688Z,5.45
2023-02-09T04:10:57.646Z,5.45
2023-02-09T04:13:24.689Z,5.22
2023-02-09T04:15:51.365Z,5.63
2023-02-09T04:18:17.903Z,5.40
2023-02-09T04:20:44.740Z,5.50
2023-02-09T04:23:11.347Z,5.40
2023-02-09T04:25:37.956Z,5.70
2023-02-09T04:28:04.664Z,5.43
2023-02-09T04:30:31.109Z,5.68
2023-02-09T04:32:57.529Z,5.78
2023-02-09T04:35:23.920Z,5.68
2023-02-09T04:37:50.300Z,5.43
2023-02-09T04:40:16.999Z,5.40
2023-02-09T04:42:46.989Z,5.20
2023-02-09T04:45:13.394Z,5.43
2023-02-09T04:47:39.776Z,5.07
2023-02-09T04:50:06.559Z,5.47
2023-02-09T04:52:33.018Z,5.40
2023-02-09T04:54:59.412Z,5.38
2023-02-09T04:57:44.245Z,5.10
2023-02-09T05:00:11.281Z,5.43
2023-02-09T05:02:37.893Z,5.45
2023-02-09T05:05:04.429Z,5.20
2023-02-09T05:07:30.828Z,4.88
2023-02-09T05:09:57.216Z,5.32
2023-02-09T05:12:23.574Z,5.65
2023-02-09T05:14:50.150Z,6.05
2023-02-09T05:17:20.905Z,5.43
2023-02-09T05:19:48.365Z,6.00
2023-02-09T05:22:14.963Z,5.82
2023-02-09T05:24:41.377Z,5.95
2023-02-09T05:27:07.770Z,5.72
2023-02-09T05:29:34.192Z,6.10
2023-02-09T05:32:00.631Z,5.32
2023-02-09T05:34:27.081Z,5.68
2023-02-09T05:36:53.437Z,5.57
2023-02-09T05:39:19.885Z,5.70
2023-02-09T05:42:04.601Z,6.27
2023-02-09T05:44:31.004Z,5.63
2023-02-09T05:46:57.388Z,5.78
2023-02-09T05:49:23.775Z,5.32
2023-02-09T05:51:50.160Z,5.80
2023-02-09T05:54:16.547Z,5.30
2023-02-09T05:56:43.267Z,5.72
2023-02-09T05:59:09.849Z,5.60
2023-02-09T06:01:36.538Z,5.85
2023-02-09T06:04:02.964Z,4.93
2023-02-09T06:06:29.428Z,5.80
2023-02-09T06:08:55.803Z,6.20
2023-02-09T06:11:22.212Z,6.20
2023-02-09T06:13:49.228Z,6.00
2023-02-09T06:16:15.656Z,6.20
2023-02-09T06:18:42.091Z,5.90
2023-02-09T06:21:08.481Z,6.05
2023-02-09T06:23:35.449Z,5.57
2023-02-09T06:26:09.495Z,6.20
2023-02-09T06:28:36.017Z,6.15
2023-02-09T06:31:02.768Z,6.20
2023-02-09T06:33:32.874Z,6.20
2023-02-09T06:35:59.411Z,6.07
2023-02-09T06:38:25.882Z,6.43
2023-02-09T06:40:52.380Z,5.90
2023-02-09T06:43:18.758Z,6.20
2023-02-09T06:45:45.136Z,6.18
2023-02-09T06:48:11.590Z,5.97
2023-02-09T06:50:38.747Z,6.00
2023-02-09T06:53:06.045Z,5.68
2023-02-09T06:55:33.249Z,5.73
2023-02-09T06:57:59.911Z,6.47
2023-02-09T07:00:27.272Z,6.20
2023-02-09T07:02:54.371Z,5.95
2023-02-09T07:05:21.196Z,6.35
2023-02-09T07:07:47.850Z,5.90
2023-02-09T07:10:16.672Z,5.65
2023-02-09T07:12:45.991Z,6.35
2023-02-09T07:15:13.871Z,5.93
2023-02-09T07:17:40.872Z,6.25
2023-02-09T07:20:09.167Z,6.23
2023-02-09T07:22:35.607Z,6.13
2023-02-09T07:25:02.033Z,6.28
2023-02-09T07:27:28.424Z,6.85
2023-02-09T07:29:54.785Z,6.20
2023-02-09T07:32:23.788Z,6.33
2023-02-09T07:34:50.193Z,6.45
2023-02-09T07:37:16.589Z,6.60
2023-02-09T07:39:43.082Z,5.68
2023-02-09T07:42:09.639Z,5.65
2023-02-09T07:44:36.001Z,5.90
2023-02-09T07:47:02.389Z,5.90
2023-02-09T07:49:28.737Z,5.85
2023-02-09T07:51:55.102Z,6.00
2023-02-09T07:54:21.594Z,5.65
2023-02-09T07:56:48.061Z,6.13
2023-02-09T07:59:14.560Z,5.75
2023-02-09T08:01:40.998Z,5.05
2023-02-09T08:04:07.433Z,5.55
2023-02-09T08:06:43.536Z,5.68
2023-02-09T08:09:12.051Z,5.20
2023-02-09T08:11:45.380Z,6.10
2023-02-09T08:14:22.238Z,6.07
2023-02-09T08:16:51.236Z,5.63
2023-02-09T08:19:24.351Z,6.13
2023-02-09T08:21:51.809Z,5.70
2023-02-09T08:24:20.431Z,5.97
2023-02-09T08:26:46.833Z,6.20
2023-02-09T08:29:13.405Z,6.22
2023-02-09T08:31:40.738Z,6.25
2023-02-09T08:34:07.248Z,5.70
2023-02-09T08:36:34.341Z,6.10
2023-02-09T08:39:00.772Z,6.10
2023-02-09T08:41:27.386Z,6.22
2023-02-09T08:43:53.851Z,5.88
2023-02-09T08:46:20.396Z,6.03
2023-02-09T08:48:47.541Z,6.00
2023-02-09T08:51:15.444Z,6.63
2023-02-09T08:53:43.282Z,6.18
2023-02-09T08:56:09.680Z,6.55
2023-02-09T08:58:36.533Z,5.77
2023-02-09T09:01:03.570Z,6.53
2023-02-09T09:03:31.676Z,6.00
2023-02-09T09:06:00.214Z,5.97
2023-02-09T09:08:27.147Z,6.30
2023-02-09T09:10:53.965Z,5.90
2023-02-09T09:13:20.947Z,6.40
2023-02-09T09:15:47.615Z,6.43
2023-02-09T09:18:14.248Z,6.10
2023-02-09T09:20:41.495Z,6.63
2023-02-09T09:23:11.027Z,6.70
2023-02-09T09:25:40.977Z,6.35
2023-02-09T09:28:08.078Z,6.13
2023-02-09T09:30:34.875Z,6.65
2023-02-09T09:33:02.055Z,5.70
2023-02-09T09:35:28.746Z,5.90
2023-02-09T09:37:57.309Z,6.07
2023-02-09T09:40:27.499Z,6.57
2023-02-09T09:43:00.657Z,6.38
2023-02-09T09:45:29.332Z,6.60
2023-02-09T09:47:56.335Z,6.60
2023-02-09T09:50:28.177Z,6.22
2023-02-09T09:53:00.877Z,6.82
2023-02-09T09:55:30.524Z,6.63
2023-02-09T09:58:00.485Z,6.53
2023-02-09T10:00:32.322Z,7.23
2023-02-09T10:02:59.025Z,6.72
2023-02-09T10:05:28.299Z,6.95
2023-02-09T10:08:09.976Z,6.55
2023-02-09T10:10:54.940Z,6.90
2023-02-09T10:13:25.499Z,6.77
2023-02-09T10:15:57.370Z,6.63
2023-02-09T10:18:25.448Z,7.03
2023-02-09T10:21:01.472Z,6.82
2023-02-09T10:23:38.603Z,6.95
2023-02-09T10:26:20.177Z,7.50
2023-02-09T10:28:53.576Z,6.78
2023-02-09T10:31:28.970Z,7.20
2023-02-09T10:34:03.952Z,7.18
2023-02-09T10:36:36.971Z,7.30
2023-02-09T10:39:12.195Z,7.60
2023-02-09T10:41:41.990Z,7.25
2023-02-09T10:44:17.881Z,7.25
2023-02-09T10:46:44.438Z,7.30
2023-02-09T10:49:33.379Z,7.43
2023-02-09T10:52:30.749Z,7.37
2023-02-09T10:55:02.357Z,7.55
2023-02-09T10:57:30.546Z,7.85
2023-02-09T11:00:19.384Z,8.02
2023-02-09T11:02:51.258Z,8.00
2023-02-09T11:05:20.760Z,7.47
2023-02-09T11:08:21.949Z,7.68
2023-02-09T11:11:03.676Z,7.22
2023-02-09T11:13:33.157Z,7.97
2023-02-09T11:15:59.458Z,7.93
2023-02-09T11:18:32.038Z,7.90
2023-02-09T11:21:22.859Z,6.80
2023-02-09T11:23:56.213Z,8.55
2023-02-09T11:26:36.173Z,7.63
2023-02-09T11:29:27.673Z,7.57
2023-02-09T11:32:07.342Z,8.23
2023-02-09T11:35:00.979Z,8.10
2023-02-09T11:37:33.356Z,8.43
2023-02-09T11:40:15.912Z,8.07
2023-02-09T11:42:53.278Z,8.48
2023-02-09T11:45:46.249Z,7.83
2023-02-09T11:48:28.144Z,7.63
2023-02-09T11:51:09.521Z,8.32
2023-02-09T11:53:54.076Z,8.90
2023-02-09T11:56:25.479Z,8.50
2023-02-09T11:59:03.729Z,8.53
2023-02-09T12:01:37.723Z,8.77
2023-02-09T12:04:16.380Z,8.38
2023-02-09T12:06:50.676Z,8.75
2023-02-09T12:09:28.302Z,8.90
2023-02-09T12:11:59.471Z,9.13
2023-02-09T12:14:37.978Z,9.20
2023-02-09T12:17:13.840Z,8.48
2023-02-09T12:19:45.995Z,9.45
2023-02-09T12:22:34.088Z,8.80
2023-02-09T12:25:17.438Z,9.03
2023-02-09T12:28:09.697Z,8.82
2023-02-09T12:30:41.996Z,9.40
2023-02-09T12:33:21.843Z,8.82
2023-02-09T12:36:09.449Z,9.45
2023-02-09T12:39:07.146Z,9.53
2023-02-09T12:41:33.450Z,8.82
2023-02-09T12:44:09.074Z,9.50
2023-02-09T12:46:44.643Z,9.85
2023-02-09T12:49:14.124Z,9.32
2023-02-09T12:51:46.474Z,9.70
2023-02-09T12:54:38.542Z,9.38
2023-02-09T12:57:17.771Z,10.05
2023-02-09T12:59:49.847Z,9.63
2023-02-09T13:02:46.185Z,9.27
2023-02-09T13:05:23.708Z,9.43
2023-02-09T13:08:00.011Z,9.30
2023-02-09T13:10:48.095Z,9.93
2023-02-09T13:13:25.622Z,9.30
2023-02-09T13:16:01.060Z,10.45
2023-02-09T13:18:52.965Z,10.20
2023-02-09T13:21:35.469Z,9.90
2023-02-09T13:24:09.565Z,10.00
2023-02-09T13:26:46.829Z,10.10
2023-02-09T13:29:20.462Z,10.63
2023-02-09T13:32:16.611Z,10.17
2023-02-09T13:34:52.103Z,10.77
2023-02-09T13:37:46.941Z,10.02
2023-02-09T13:40:33.808Z,10.60
2023-02-09T13:43:24.398Z,10.20
2023-02-09T13:45:55.823Z,10.73
2023-02-09T13:48:27.209Z,10.30
2023-02-09T13:50:56.138Z,10.32
2023-02-09T13:53:24.912Z,11.23
2023-02-09T13:55:53.362Z,10.80
2023-02-09T13:58:22.966Z,10.43
2023-02-09T14:00:55.538Z,10.82
2023-02-09T14:03:25.660Z,10.73
2023-02-09T14:06:10.456Z,11.70
2023-02-09T14:08:40.334Z,11.48
2023-02-09T14:11:41.147Z,10.83
2023-02-09T14:14:21.162Z,11.65
2023-02-09T14:16:53.781Z,10.55
2023-02-09T14:19:32.740Z,11.13
2023-02-09T14:21:59.148Z,11.05
2023-02-09T14:24:27.052Z,11.07
2023-02-09T14:27:03.774Z,11.15
2023-02-09T14:29:32.490Z,11.25
2023-02-09T14:32:31.944Z,11.60
2023-02-09T14:34:59.592Z,11.95
2023-02-09T14:37:29.349Z,11.50
2023-02-09T14:40:22.666Z,11.70
2023-02-09T14:42:56.645Z,11.80
2023-02-09T14:45:37.382Z,11.60
2023-02-09T14:48:20.368Z,12.18
2023-02-09T14:50:49.175Z,11.60
2023-02-09T14:53:17.815Z,12.40
2023-02-09T14:55:44.715Z,12.00
2023-02-09T14:58:12.400Z,11.77
2023-02-09T15:00:38.768Z,11.77
2023-02-09T15:03:05.242Z,11.63
2023-02-09T15:05:31.700Z,12.10
2023-02-09T15:08:05.742Z,12.50
2023-02-09T15:10:38.157Z,12.23
2023-02-09T15:13:05.096Z,12.55
2023-02-09T15:15:33.153Z,11.97
2023-02-09T15:18:00.334Z,12.23
2023-02-09T15:20:26.847Z,12.75
2023-02-09T15:22:54.393Z,12.23
2023-02-09T15:25:22.446Z,11.82
2023-02-09T15:27:52.444Z,11.90
2023-02-09T15:30:22.164Z,12.00
2023-02-09T15:32:48.585Z,12.32
2023-02-09T15:35:16.780Z,12.10
2023-02-09T15:37:46.220Z,12.55
2023-02-09T15:40:12.554Z,12.03
2023-02-09T15:42:57.956Z,12.38
2023-02-09T15:45:45.276Z,12.40
2023-02-09T15:48:12.319Z,11.80
2023-02-09T15:50:50.623Z,12.10
2023-02-09T15:53:18.973Z,12.70
2023-02-09T15:55:46.668Z,13.02
2023-02-09T15:58:19.587Z,12.82
2023-02-09T16:00:46.272Z,13.00
2023-02-09T16:03:19.436Z,12.48
2023-02-09T16:05:49.735Z,12.93
2023-02-09T16:08:25.112Z,13.27
2023-02-09T16:10:51.916Z,12.85
2023-02-09T16:13:19.471Z,13.57
2023-02-09T16:15:47.236Z,13.48
2023-02-09T16:18:14.042Z,14.10
2023-02-09T16:20:46.999Z,13.25
2023-02-09T16:23:21.613Z,13.50
2023-02-09T16:25:52.800Z,14.25
2023-02-09T16:28:21.436Z,14.02
2023-02-09T16:30:54.165Z,13.80
2023-02-09T16:33:22.200Z,14.90
2023-02-09T16:35:54.186Z,14.30
2023-02-09T16:38:22.715Z,13.63
2023-02-09T16:40:50.230Z,13.90
2023-02-09T16:43:16.887Z,14.70
2023-02-09T16:46:00.933Z,15.25
2023-02-09T16:48:32.065Z,14.73
2023-02-09T16:50:58.671Z,15.35
2023-02-09T16:53:43.225Z,14.57
2023-02-09T16:56:12.684Z,15.37
2023-02-09T16:58:39.659Z,14.98
2023-02-09T17:01:14.469Z,16.10
2023-02-09T17:03:42.465Z,15.00
2023-02-09T17:06:17.115Z,15.35
2023-02-09T17:08:44.179Z,15.00
2023-02-09T17:11:16.965Z,14.88
2023-02-09T17:13:44.980Z,15.82
2023-02-09T17:16:32.204Z,15.27
2023-02-09T17:19:03.097Z,16.08
2023-02-09T17:21:38.583Z,15.83
2023-02-09T17:24:11.641Z,15.52
2023-02-09T17:26:40.009Z,16.45
2023-02-09T17:29:06.726Z,15.82
2023-02-09T17:31:47.267Z,15.63
2023-02-09T17:34:20.228Z,15.20
2023-02-09T17:36:46.684Z,16.65
2023-02-09T17:39:13.699Z,15.90
2023-02-09T17:41:45.261Z,15.95
2023-02-09T17:44:39.621Z,16.35
2023-02-09T17:47:19.792Z,16.97
2023-02-09T17:49:47.093Z,16.30
2023-02-09T17:52:18.277Z,14.80
2023-02-09T17:54:45.394Z,16.48
2023-02-09T17:57:14.060Z,16.45
2023-02-09T17:59:41.445Z,16.77
2023-02-09T18:02:16.628Z,16.38
2023-02-09T18:04:43.733Z,17.30
2023-02-09T18:07:10.459Z,16.45
2023-02-09T18:09:37.076Z,17.65
2023-02-09T18:12:07.756Z,17.80
2023-02-09T18:14:34.622Z,18.02
2023-02-09T18:17:01.684Z,16.20
2023-02-09T18:19:28.227Z,16.88
2023-02-09T18:21:57.207Z,17.70
2023-02-09T18:24:25.774Z,17.90
2023-02-09T18:26:52.217Z,19.35
2023-02-09T18:29:20.191Z,19.17
2023-02-09T18:31:46.844Z,19.15
2023-02-09T18:34:15.072Z,18.90
2023-02-09T18:36:41.777Z,19.80
2023-02-09T18:39:08.187Z,19.92
2023-02-09T18:41:34.717Z,21.05
2023-02-09T18:44:01.085Z,19.88
2023-02-09T18:46:27.531Z,21.25
2023-02-09T18:48:54.603Z,21.43
2023-02-09T18:51:21.782Z,21.35
2023-02-09T18:53:50.111Z,20.60
2023-02-09T18:56:21.723Z,21.75
2023-02-09T18:58:51.779Z,20.20
2023-02-09T19:01:23.781Z,21.00
2023-02-09T19:03:52.070Z,21.05
2023-02-09T19:06:20.409Z,21.13
2023-02-09T19:08:48.167Z,20.83
2023-02-09T19:11:16.911Z,21.67
2023-02-09T19:13:43.352Z,21.30
2023-02-09T19:16:11.799Z,20.52
2023-02-09T19:18:39.409Z,21.23
2023-02-09T19:21:07.889Z,22.05
2023-02-09T19:23:35.488Z,20.75
2023-02-09T19:26:05.574Z,20.23
2023-02-09T19:28:32.209Z,20.33
2023-02-09T19:30:59.053Z,21.10
2023-02-09T19:33:25.466Z,21.30
2023-02-09T19:36:01.200Z,20.95
2023-02-09T19:38:27.686Z,20.13
2023-02-09T19:41:08.541Z,22.15
2023-02-09T19:43:36.023Z,21.45
2023-02-09T19:46:02.536Z,20.08
2023-02-09T19:48:29.015Z,20.58
2023-02-09T19:50:56.590Z,19.70
2023-02-09T19:53:23.441Z,21.50
2023-02-09T19:55:51.190Z,21.33
2023-02-09T19:58:18.006Z,21.65
2023-02-09T20:00:44.402Z,21.25
2023-02-09T20:03:13.015Z,22.73
2023-02-09T20:05:40.222Z,21.58
2023-02-09T20:08:06.670Z,21.83
2023-02-09T20:10:33.382Z,21.00
2023-02-09T20:12:59.768Z,20.95
2023-02-09T20:15:26.292Z,22.10
2023-02-09T20:17:52.825Z,22.13
2023-02-09T20:20:19.471Z,22.70
2023-02-09T20:22:49.097Z,21.63
2023-02-09T20:25:15.759Z,22.70
2023-02-09T20:27:42.236Z,21.23
2023-02-09T20:30:10.681Z,20.55
2023-02-09T20:32:37.060Z,21.05
2023-02-09T20:35:04.824Z,21.70
2023-02-09T20:37:31.721Z,21.95
2023-02-09T20:39:58.374Z,20.60
2023-02-09T20:42:43.786Z,20.48
2023-02-09T20:45:35.818Z,20.52
2023-02-09T20:48:04.077Z,19.92
2023-02-09T20:50:32.316Z,21.13
2023-02-09T20:52:58.896Z,21.23
2023-02-09T20:55:25.289Z,20.15
2023-02-09T20:57:51.860Z,21.75
2023-02-09T21:00:18.487Z,21.85
2023-02-09T21:02:44.980Z,19.25
2023-02-09T21:05:11.538Z,20.70
2023-02-09T21:07:37.980Z,20.60
2023-02-09T21:10:04.868Z,19.27
2023-02-09T21:12:31.329Z,20.10
2023-02-09T21:14:58.776Z,20.20
2023-02-09T21:17:25.258Z,18.87
2023-02-09T21:19:51.623Z,19.17
2023-02-09T21:22:18.008Z,19.85
2023-02-09T21:24:44.983Z,18.83
2023-02-09T21:27:12.294Z,19.55
2023-02-09T21:29:38.798Z,19.07
2023-02-09T21:32:07.197Z,20.45
2023-02-09T21:34:33.733Z,20.27
2023-02-09T21:37:00.194Z,18.75
2023-02-09T21:39:26.643Z,18.92
2023-02-09T21:42:11.432Z,18.00
2023-02-09T21:44:38.018Z,19.92
2023-02-09T21:47:07.667Z,19.67
2023-02-09T21:49:34.247Z,19.65
2023-02-09T21:52:00.811Z,17.90
2023-02-09T21:54:28.206Z,19.57
2023-02-09T21:56:55.403Z,21.10
2023-02-09T21:59:21.817Z,20.38
2023-02-09T22:01:48.161Z,20.33
2023-02-09T22:04:14.555Z,20.65
2023-02-09T22:06:41.721Z,21.13
2023-02-09T22:09:08.212Z,20.52
2023-02-09T22:11:34.617Z,20.80
2023-02-09T22:14:01.100Z,18.77
2023-02-09T22:16:27.612Z,18.33
2023-02-09T22:18:54.036Z,19.00
2023-02-09T22:21:20.786Z,19.40
2023-02-09T22:23:47.421Z,19.25
2023-02-09T22:26:14.770Z,18.50
2023-02-09T22:28:42.042Z,17.80
2023-02-09T22:31:11.547Z,17.67
2023-02-09T22:33:38.417Z,16.83
2023-02-09T22:36:16.243Z,17.33
2023-02-09T22:38:44.732Z,16.67
2023-02-09T22:41:21.411Z,16.80
2023-02-09T22:44:03.200Z,16.50
2023-02-09T22:46:32.642Z,15.77
2023-02-09T22:49:01.152Z,15.43
2023-02-09T22:51:30.222Z,15.55
2023-02-09T22:53:58.093Z,16.45
2023-02-09T22:56:25.237Z,14.67
2023-02-09T22:58:56.251Z,15.18
2023-02-09T23:01:23.109Z,14.68
2023-02-09T23:03:50.234Z,15.48
2023-02-09T23:06:19.981Z,14.50
2023-02-09T23:08:47.159Z,13.90
2023-02-09T23:11:15.981Z,14.55
2023-02-09T23:13:42.899Z,13.98
2023-02-09T23:16:18.374Z,14.13
2023-02-09T23:18:54.050Z,14.05
2023-02-09T23:21:22.674Z,13.37
2023-02-09T23:23:49.336Z,13.35
2023-02-09T23:26:17.174Z,14.15
2023-02-09T23:28:43.866Z,12.73
2023-02-09T23:31:20.623Z,13.02
2023-02-09T23:33:47.144Z,12.57
2023-02-09T23:36:16.477Z,12.52
2023-02-09T23:38:44.299Z,11.93
2023-02-09T23:41:13.962Z,12.43
2023-02-09T23:43:40.631Z,13.77
2023-02-09T23:46:11.480Z,11.80
2023-02-09T23:48:38.204Z,12.85
2023-02-09T23:51:08.049Z,11.98
2023-02-09T23:53:35.288Z,11.13
2023-02-09T23:56:04.799Z,11.00
2023-02-09T23:58:36.796Z,11.53
